Time,TemperatureF,DewpointF,PressureIn,WindDirection,WindDirectionDegrees,WindSpeedMPH,WindSpeedGustMPH,Humidity,HourlyPrecipIn,Conditions,Clouds,dailyrainin,SoftwareType,DateUTC
2013-01-09 00:00:00,26.0,21.0,-100.00,North,-999,-999.0,-999.0,80,-99.99,,,-99.99,,2013-01-09 07:00:00,
2013-01-09 00:32:00,26.0,21.0,-100.00,North,-999,-999.0,-999.0,80,-99.99,,,-99.99,,2013-01-09 07:32:00,
2013-01-09 00:42:00,26.0,21.0,-100.00,North,-999,-999.0,-999.0,80,-99.99,,,-99.99,,2013-01-09 07:42:00,
2013-01-09 00:52:00,26.0,21.0,-100.00,North,-999,-999.0,-999.0,80,-99.99,,,-99.99,,2013-01-09 07:52:00,
2013-01-09 01:00:00,27.0,20.0,-100.00,North,-999,-999.0,-999.0,74,-99.99,,,-99.99,,2013-01-09 08:00:00,
2013-01-09 01:32:00,27.0,20.0,-100.00,North,-999,-999.0,-999.0,74,-99.99,,,-99.99,,2013-01-09 08:32:00,
2013-01-09 01:43:00,27.0,20.0,-100.00,North,-999,-999.0,-999.0,74,-99.99,,,-99.99,,2013-01-09 08:43:00,
2013-01-09 01:53:00,27.0,20.0,-100.00,North,-999,-999.0,-999.0,74,-99.99,,,-99.99,,2013-01-09 08:53:00,
2013-01-09 02:00:00,25.0,17.0,-100.00,North,-999,-999.0,-999.0,69,-99.99,,,-99.99,,2013-01-09 09:00:00,
2013-01-09 02:32:00,25.0,17.0,-100.00,North,-999,-999.0,-999.0,69,-99.99,,,-99.99,,2013-01-09 09:32:00,
2013-01-09 02:42:00,25.0,17.0,-100.00,North,-999,-999.0,-999.0,69,-99.99,,,-99.99,,2013-01-09 09:42:00,
2013-01-09 02:53:00,25.0,17.0,-100.00,North,-999,-999.0,-999.0,69,-99.99,,,-99.99,,2013-01-09 09:53:00,
2013-01-09 03:00:00,27.0,13.0,-100.00,North,-999,-999.0,-999.0,54,-99.99,,,-99.99,,2013-01-09 10:00:00,
2013-01-09 03:32:00,27.0,13.0,-100.00,North,-999,-999.0,-999.0,54,-99.99,,,-99.99,,2013-01-09 10:32:00,
2013-01-09 03:42:00,27.0,13.0,-100.00,North,-999,-999.0,-999.0,54,-99.99,,,-99.99,,2013-01-09 10:42:00,
2013-01-09 03:52:00,27.0,13.0,-100.00,North,-999,-999.0,-999.0,54,-99.99,,,-99.99,,2013-01-09 10:52:00,
2013-01-09 05:00:00,27.0,12.0,-100.00,North,-999,-999.0,-999.0,52,-99.99,,,-99.99,,2013-01-09 12:00:00,
2013-01-09 05:33:00,27.0,12.0,-100.00,North,-999,-999.0,-999.0,52,-99.99,,,-99.99,,2013-01-09 12:33:00,
2013-01-09 05:43:00,27.0,12.0,-100.00,North,-999,-999.0,-999.0,52,-99.99,,,-99.99,,2013-01-09 12:43:00,
2013-01-09 05:53:00,27.0,12.0,-100.00,North,-999,-999.0,-999.0,52,-99.99,,,-99.99,,2013-01-09 12:53:00,
2013-01-09 06:00:00,29.0,5.0,-100.00,North,-999,-999.0,-999.0,35,-99.99,,,-99.99,,2013-01-09 13:00:00,
2013-01-09 06:33:00,29.0,5.0,-100.00,North,-999,-999.0,-999.0,35,-99.99,,,-99.99,,2013-01-09 13:33:00,
2013-01-09 06:43:00,29.0,5.0,-100.00,North,-999,-999.0,-999.0,35,-99.99,,,-99.99,,2013-01-09 13:43:00,
2013-01-09 06:52:00,29.0,5.0,-100.00,North,-999,-999.0,-999.0,35,-99.99,,,-99.99,,2013-01-09 13:52:00,
2013-01-09 07:00:00,31.0,-2.0,-100.00,North,-999,-999.0,-999.0,23,-99.99,,,-99.99,,2013-01-09 14:00:00,
2013-01-09 07:33:00,31.0,-2.0,-100.00,North,-999,-999.0,-999.0,23,-99.99,,,-99.99,,2013-01-09 14:33:00,
2013-01-09 07:43:00,31.0,-2.0,-100.00,North,-999,-999.0,-999.0,23,-99.99,,,-99.99,,2013-01-09 14:43:00,
2013-01-09 07:53:00,31.0,-2.0,-100.00,North,-999,-999.0,-999.0,23,-99.99,,,-99.99,,2013-01-09 14:53:00,
2013-01-09 08:00:00,31.0,0.0,-100.00,North,-999,-999.0,-999.0,25,-99.99,,,-99.99,,2013-01-09 15:00:00,
2013-01-09 08:33:00,31.0,0.0,-100.00,North,-999,-999.0,-999.0,25,-99.99,,,-99.99,,2013-01-09 15:33:00,
2013-01-09 08:43:00,31.0,0.0,-100.00,North,-999,-999.0,-999.0,25,-99.99,,,-99.99,,2013-01-09 15:43:00,
2013-01-09 08:53:00,31.0,0.0,-100.00,North,-999,-999.0,-999.0,25,-99.99,,,-99.99,,2013-01-09 15:53:00,
2013-01-09 09:00:00,35.0,-4.0,-100.00,North,-999,-999.0,-999.0,17,-99.99,,,-99.99,,2013-01-09 16:00:00,
2013-01-09 09:33:00,35.0,-4.0,-100.00,North,-999,-999.0,-999.0,17,-99.99,,,-99.99,,2013-01-09 16:33:00,
2013-01-09 09:43:00,35.0,-4.0,-100.00,North,-999,-999.0,-999.0,17,-99.99,,,-99.99,,2013-01-09 16:43:00,
2013-01-09 09:53:00,35.0,-4.0,-100.00,North,-999,-999.0,-999.0,17,-99.99,,,-99.99,,2013-01-09 16:53:00,
2013-01-09 10:00:00,38.0,-4.0,-100.00,North,-999,-999.0,-999.0,16,-99.99,,,-99.99,,2013-01-09 17:00:00,
2013-01-09 10:33:00,38.0,-4.0,-100.00,North,-999,-999.0,-999.0,16,-99.99,,,-99.99,,2013-01-09 17:33:00,
2013-01-09 10:43:00,38.0,-4.0,-100.00,North,-999,-999.0,-999.0,16,-99.99,,,-99.99,,2013-01-09 17:43:00,
2013-01-09 10:53:00,38.0,-4.0,-100.00,North,-999,-999.0,-999.0,16,-99.99,,,-99.99,,2013-01-09 17:53:00,
2013-01-09 11:00:00,43.0,-7.0,-100.00,North,-999,-999.0,-999.0,11,-99.99,,,-99.99,,2013-01-09 18:00:00,
2013-01-09 11:33:00,43.0,-7.0,-100.00,North,-999,-999.0,-999.0,11,-99.99,,,-99.99,,2013-01-09 18:33:00,
2013-01-09 11:43:00,43.0,-7.0,-100.00,North,-999,-999.0,-999.0,11,-99.99,,,-99.99,,2013-01-09 18:43:00,
2013-01-09 11:53:00,43.0,-7.0,-100.00,North,-999,-999.0,-999.0,11,-99.99,,,-99.99,,2013-01-09 18:53:00,
2013-01-09 13:33:00,46.0,-8.0,-100.00,North,-999,-999.0,-999.0,9,-99.99,,,-99.99,,2013-01-09 20:33:00,
2013-01-09 14:33:00,43.0,-8.0,-100.00,North,-999,-999.0,-999.0,10,-99.99,,,-99.99,,2013-01-09 21:33:00,
2013-01-09 14:43:00,43.0,-8.0,-100.00,North,-999,-999.0,-999.0,10,-99.99,,,-99.99,,2013-01-09 21:43:00,
2013-01-09 14:53:00,43.0,-8.0,-100.00,North,-999,-999.0,-999.0,10,-99.99,,,-99.99,,2013-01-09 21:53:00,
2013-01-09 15:00:00,41.0,-5.0,-100.00,North,-999,-999.0,-999.0,13,-99.99,,,-99.99,,2013-01-09 22:00:00,
2013-01-09 15:33:00,41.0,-5.0,-100.00,North,-999,-999.0,-999.0,13,-99.99,,,-99.99,,2013-01-09 22:33:00,
2013-01-09 16:00:00,41.0,2.0,-100.00,North,-999,-999.0,-999.0,19,-99.99,,,-99.99,,2013-01-09 23:00:00,
2013-01-09 16:33:00,41.0,2.0,-100.00,North,-999,-999.0,-999.0,19,-99.99,,,-99.99,,2013-01-09 23:33:00,
2013-01-09 16:43:00,41.0,2.0,-100.00,North,-999,-999.0,-999.0,19,-99.99,,,-99.99,,2013-01-09 23:43:00,
2013-01-09 16:53:00,41.0,2.0,-100.00,North,-999,-999.0,-999.0,19,-99.99,,,-99.99,,2013-01-09 23:53:00,
2013-01-09 17:33:00,40.0,3.0,-100.00,North,-999,-999.0,-999.0,20,-99.99,,,-99.99,,2013-01-10 00:33:00,
2013-01-09 17:43:00,40.0,3.0,-100.00,North,-999,-999.0,-999.0,20,-99.99,,,-99.99,,2013-01-10 00:43:00,
2013-01-09 17:53:00,40.0,3.0,-100.00,North,-999,-999.0,-999.0,20,-99.99,,,-99.99,,2013-01-10 00:53:00,
2013-01-09 18:00:00,31.0,10.0,-100.00,North,-999,-999.0,-999.0,40,-99.99,,,-99.99,,2013-01-10 01:00:00,
2013-01-09 18:33:00,31.0,10.0,-100.00,North,-999,-999.0,-999.0,40,-99.99,,,-99.99,,2013-01-10 01:33:00,
2013-01-09 18:43:00,31.0,10.0,-100.00,North,-999,-999.0,-999.0,40,-99.99,,,-99.99,,2013-01-10 01:43:00,
2013-01-09 18:53:00,31.0,10.0,-100.00,North,-999,-999.0,-999.0,40,-99.99,,,-99.99,,2013-01-10 01:53:00,
2013-01-09 19:00:00,34.0,8.0,-100.00,North,-999,-999.0,-999.0,33,-99.99,,,-99.99,,2013-01-10 02:00:00,
2013-01-09 19:33:00,34.0,8.0,-100.00,North,-999,-999.0,-999.0,33,-99.99,,,-99.99,,2013-01-10 02:33:00,
2013-01-09 19:43:00,34.0,8.0,-100.00,North,-999,-999.0,-999.0,33,-99.99,,,-99.99,,2013-01-10 02:43:00,
2013-01-09 19:52:00,34.0,8.0,-100.00,North,-999,-999.0,-999.0,33,-99.99,,,-99.99,,2013-01-10 02:52:00,
2013-01-09 20:00:00,39.0,4.0,-100.00,North,-999,-999.0,-999.0,22,-99.99,,,-99.99,,2013-01-10 03:00:00,
2013-01-09 20:33:00,39.0,4.0,-100.00,North,-999,-999.0,-999.0,22,-99.99,,,-99.99,,2013-01-10 03:33:00,
2013-01-09 20:43:00,39.0,4.0,-100.00,North,-999,-999.0,-999.0,22,-99.99,,,-99.99,,2013-01-10 03:43:00,
2013-01-09 20:52:00,39.0,4.0,-100.00,North,-999,-999.0,-999.0,22,-99.99,,,-99.99,,2013-01-10 03:52:00,
2013-01-09 21:00:00,39.0,6.0,-100.00,North,-999,-999.0,-999.0,24,-99.99,,,-99.99,,2013-01-10 04:00:00,
2013-01-09 21:32:00,39.0,6.0,-100.00,North,-999,-999.0,-999.0,24,-99.99,,,-99.99,,2013-01-10 04:32:00,
2013-01-09 21:43:00,39.0,6.0,-100.00,North,-999,-999.0,-999.0,24,-99.99,,,-99.99,,2013-01-10 04:43:00,
2013-01-09 21:52:00,39.0,6.0,-100.00,North,-999,-999.0,-999.0,24,-99.99,,,-99.99,,2013-01-10 04:52:00,
2013-01-09 22:00:00,39.0,4.0,-100.00,North,-999,-999.0,-999.0,22,-99.99,,,-99.99,,2013-01-10 05:00:00,
2013-01-09 22:33:00,39.0,4.0,-100.00,North,-999,-999.0,-999.0,22,-99.99,,,-99.99,,2013-01-10 05:33:00,
2013-01-09 22:43:00,39.0,4.0,-100.00,North,-999,-999.0,-999.0,22,-99.99,,,-99.99,,2013-01-10 05:43:00,
2013-01-09 22:52:00,39.0,4.0,-100.00,North,-999,-999.0,-999.0,22,-99.99,,,-99.99,,2013-01-10 05:52:00,
2013-01-09 23:00:00,39.0,5.0,-100.00,North,-999,-999.0,-999.0,23,-99.99,,,-99.99,,2013-01-10 06:00:00,
2013-01-09 23:32:00,39.0,5.0,-100.00,North,-999,-999.0,-999.0,23,-99.99,,,-99.99,,2013-01-10 06:32:00,
2013-01-09 23:42:00,39.0,5.0,-100.00,North,-999,-999.0,-999.0,23,-99.99,,,-99.99,,2013-01-10 06:42:00,
2013-01-09 23:52:00,39.0,5.0,-100.00,North,-999,-999.0,-999.0,23,-99.99,,,-99.99,,2013-01-10 06:52:00,